Time;durP1;ratioP1;P1;durP2;ratioP2;P2;SDS_P1;SDS_P2;PMS_P1;PMS_P2;Temp;Humidity;BMP_temperature;BMP_pressure;BME280_temperature;BME280_humidity;BME280_pressure;Samples;Min_cycle;Max_cycle;Signal;HPM_P1;HPM_P2
2023/10/25 00:01:11;;;;;;;1.40;0.65;;;;;;;8.82;88.51;100743.75;5072731;28;20151;-79
2023/10/25 00:03:37;;;;;;;1.08;0.70;;;;;;;8.65;90.02;100794.91;5072407;28;20032;-79
2023/10/25 00:06:02;;;;;;;1.10;0.60;;;;;;;8.59;91.05;100779.56;5072268;28;20036;-79
2023/10/25 00:08:28;;;;;;;2.75;0.82;;;;;;;8.65;90.82;100765.41;5072761;28;20035;-79
2023/10/25 00:11:04;;;;;;;0.80;0.60;;;;;;;8.46;90.66;100752.59;5072772;28;20033;-80
2023/10/25 00:13:29;;;;;;;1.10;0.60;;;;;;;8.56;91.01;100734.34;5072808;28;20036;-79
2023/10/25 00:15:55;;;;;;;2.83;0.75;;;;;;;8.66;89.73;100732.19;5075390;28;20036;-79
2023/10/25 00:18:20;;;;;;;2.45;0.90;;;;;;;8.72;90.62;100746.72;5062723;28;20383;-79
2023/10/25 00:20:46;;;;;;;1.42;0.80;;;;;;;8.93;89.82;100768.22;5090439;28;20085;-79
2023/10/25 00:23:11;;;;;;;2.78;0.80;;;;;;;8.92;90.25;100765.72;5073941;28;20116;-79
2023/10/25 00:25:37;;;;;;;1.50;0.80;;;;;;;8.72;91.12;100762.00;5056052;28;20036;-79
2023/10/25 00:28:04;;;;;;;1.75;0.93;;;;;;;8.85;90.96;100764.81;5073165;28;20052;-79
2023/10/25 00:30:29;;;;;;;1.55;0.90;;;;;;;8.53;91.29;100720.47;5056187;28;20028;-79
2023/10/25 00:32:55;;;;;;;1.95;0.80;;;;;;;8.81;90.72;100750.13;5072225;28;20035;-79
2023/10/25 00:35:21;;;;;;;2.85;0.70;;;;;;;8.60;92.30;100762.44;5088829;28;20467;-78
2023/10/25 00:37:46;;;;;;;2.78;0.90;;;;;;;8.66;92.83;100760.88;5055236;28;20024;-79
2023/10/25 00:40:13;;;;;;;1.48;0.73;;;;;;;8.72;91.94;100757.44;5055248;28;20040;-79
2023/10/25 00:42:38;;;;;;;1.00;0.70;;;;;;;8.55;93.13;100747.97;5071646;28;20078;-79
2023/10/25 00:45:04;;;;;;;1.35;0.82;;;;;;;8.66;92.68;100750.97;5071868;28;20039;-79
2023/10/25 00:47:29;;;;;;;1.33;0.85;;;;;;;8.72;91.97;100775.41;5055497;28;20480;-79
2023/10/25 00:49:55;;;;;;;1.20;0.70;;;;;;;8.53;93.78;100764.22;5088826;28;20028;-78
2023/10/25 00:52:21;;;;;;;1.65;0.93;;;;;;;8.35;93.56;100716.31;5054992;28;20082;-79
2023/10/25 00:54:47;;;;;;;1.42;0.70;;;;;;;8.43;93.70;100745.72;5078137;28;20036;-78
2023/10/25 00:57:14;;;;;;;1.50;0.70;;;;;;;8.43;94.48;100766.34;5072484;28;20064;-79
2023/10/25 00:59:40;;;;;;;0.95;0.50;;;;;;;8.54;94.27;100773.09;5079313;28;20082;-79
2023/10/25 01:02:07;;;;;;;0.80;0.50;;;;;;;8.31;95.07;100782.06;5073608;28;20043;-79
2023/10/25 01:04:33;;;;;;;1.73;0.65;;;;;;;8.40;95.68;100775.59;5089444;28;20025;-79
2023/10/25 01:06:59;;;;;;;2.33;0.80;;;;;;;8.64;94.82;100768.28;5055655;28;20032;-79
2023/10/25 01:09:25;;;;;;;2.67;0.70;;;;;;;8.59;94.05;100768.00;5072856;28;20035;-79
2023/10/25 01:11:50;;;;;;;1.50;0.60;;;;;;;8.36;94.78;100734.06;5072426;28;20028;-79
2023/10/25 01:14:16;;;;;;;2.28;0.63;;;;;;;8.57;94.05;100772.72;5072569;28;20039;-79
2023/10/25 01:16:41;;;;;;;1.48;0.70;;;;;;;8.81;93.34;100780.47;5071645;28;20028;-79
2023/10/25 01:19:07;;;;;;;2.15;0.55;;;;;;;8.43;94.86;100766.34;5054466;28;20494;-79
2023/10/25 01:21:32;;;;;;;1.10;0.63;;;;;;;8.58;94.50;100777.91;5071139;28;20067;-80
2023/10/25 01:23:59;;;;;;;1.17;0.60;;;;;;;8.03;94.72;100709.50;5070702;28;20033;-79
2023/10/25 01:26:25;;;;;;;2.03;0.60;;;;;;;8.42;94.76;100770.06;5070932;28;20471;-80
2023/10/25 01:28:50;;;;;;;1.13;0.63;;;;;;;8.49;94.93;100754.06;5053732;28;20040;-79
2023/10/25 01:31:16;;;;;;;2.22;0.65;;;;;;;8.44;95.81;100760.81;5054676;28;20040;-79
2023/10/25 01:33:42;;;;;;;1.02;0.57;;;;;;;8.33;96.32;100753.19;5070245;28;20035;-80
2023/10/25 01:36:07;;;;;;;2.13;0.60;;;;;;;8.00;97.19;100716.03;5071264;28;20032;-79
2023/10/25 01:38:32;;;;;;;0.88;0.57;;;;;;;8.46;95.92;100742.69;5053644;28;20102;-79
2023/10/25 01:40:58;;;;;;;1.08;0.60;;;;;;;8.33;95.88;100745.16;5053967;28;20028;-80
2023/10/25 01:43:24;;;;;;;1.63;0.70;;;;;;;8.40;96.00;100753.31;5087637;28;20028;-80
2023/10/25 01:45:49;;;;;;;2.53;0.68;;;;;;;8.41;94.95;100736.22;5069936;28;20033;-80
2023/10/25 01:48:16;;;;;;;0.60;0.50;;;;;;;8.30;95.31;100716.03;5073423;28;20032;-79
2023/10/25 01:50:42;;;;;;;1.25;0.70;;;;;;;8.28;96.03;100736.84;5054981;28;20435;-79
2023/10/25 01:53:07;;;;;;;1.40;0.80;;;;;;;8.54;94.86;100735.53;5054609;28;20487;-79
2023/10/25 01:55:33;;;;;;;2.17;0.70;;;;;;;8.55;94.60;100731.88;5072193;28;20047;-80
2023/10/25 01:57:58;;;;;;;1.30;0.80;;;;;;;8.40;96.35;100718.47;5070863;28;20083;-80
2023/10/25 02:00:25;;;;;;;1.67;0.60;;;;;;;8.39;96.91;100722.19;5070584;28;20037;-79
2023/10/25 02:02:50;;;;;;;1.42;0.80;;;;;;;8.17;96.95;100700.59;5053817;28;20123;-80
2023/10/25 02:05:16;;;;;;;2.22;0.68;;;;;;;8.32;96.42;100714.00;5053654;28;20041;-79
2023/10/25 02:07:41;;;;;;;2.50;0.70;;;;;;;8.07;98.00;100697.38;5053044;28;20063;-80
2023/10/25 02:10:07;;;;;;;2.75;0.50;;;;;;;8.16;98.35;100724.94;5053594;28;20032;-80
2023/10/25 02:12:32;;;;;;;0.80;0.50;;;;;;;8.35;97.25;100729.72;5071362;28;20032;-79
2023/10/25 02:14:58;;;;;;;1.65;0.52;;;;;;;8.39;97.52;100724.84;5053956;28;20016;-79
2023/10/25 02:17:23;;;;;;;0.98;0.63;;;;;;;8.19;97.51;100716.53;5070227;28;20090;-79
2023/10/25 02:19:48;;;;;;;0.60;0.43;;;;;;;8.21;97.42;100725.19;5053725;28;20031;-79
2023/10/25 02:22:14;;;;;;;1.50;0.80;;;;;;;8.41;97.79;100729.03;5070402;28;20094;-79
2023/10/25 02:24:39;;;;;;;1.00;0.70;;;;;;;8.54;96.32;100739.06;5037079;28;20024;-80
2023/10/25 02:27:05;;;;;;;1.13;0.70;;;;;;;8.03;97.29;100663.13;5087922;28;20032;-80
2023/10/25 02:29:31;;;;;;;1.77;0.55;;;;;;;7.85;98.11;100650.94;5088225;28;20032;-79
2023/10/25 02:31:58;;;;;;;2.17;0.85;;;;;;;8.34;98.06;100728.03;5070290;28;20021;-80
2023/10/25 02:34:24;;;;;;;1.48;0.70;;;;;;;8.28;98.33;100719.91;5070731;28;20036;-79
2023/10/25 02:36:49;;;;;;;1.42;0.70;;;;;;;8.34;98.23;100719.19;5071333;28;20073;-80
2023/10/25 02:39:17;;;;;;;1.00;0.57;;;;;;;8.36;97.42;100693.84;5071444;28;20473;-79
2023/10/25 02:41:42;;;;;;;2.33;0.70;;;;;;;8.38;98.27;100726.72;5074461;28;20028;-80
2023/10/25 02:44:08;;;;;;;2.30;0.70;;;;;;;8.24;97.94;100696.19;5055155;28;20052;-78
2023/10/25 02:46:33;;;;;;;1.83;0.82;;;;;;;8.34;97.98;100721.84;5038576;28;20110;-79
2023/10/25 02:48:59;;;;;;;1.05;0.60;;;;;;;8.43;98.17;100707.38;5070427;28;20043;-79
2023/10/25 02:51:24;;;;;;;1.48;0.70;;;;;;;8.19;98.84;100697.75;5055192;28;20101;-80
2023/10/25 02:53:54;;;;;;;1.08;0.63;;;;;;;8.54;97.16;100716.78;5069951;28;20020;-80
2023/10/25 02:56:19;;;;;;;2.65;0.70;;;;;;;8.63;96.66;100715.66;5069903;28;20021;-80
2023/10/25 02:58:45;;;;;;;1.67;0.80;;;;;;;8.40;97.04;100721.97;5052537;28;20420;-80
2023/10/25 03:01:22;;;;;;;0.80;0.60;;;;;;;8.22;98.40;100689.34;5086672;28;20047;-80
2023/10/25 03:03:48;;;;;;;1.80;0.65;;;;;;;8.67;97.00;100722.28;5069417;28;20040;-79
2023/10/25 03:06:13;;;;;;;1.88;0.70;;;;;;;8.39;97.91;100701.56;5053014;28;20483;-80
2023/10/25 03:08:39;;;;;;;1.60;0.77;;;;;;;8.31;99.26;100716.88;5053078;28;20111;-79
2023/10/25 03:11:04;;;;;;;1.10;0.80;;;;;;;8.36;99.31;100717.97;5069805;28;20513;-80
2023/10/25 03:13:31;;;;;;;1.88;0.85;;;;;;;8.26;99.78;100701.34;5069991;28;20071;-80
2023/10/25 03:15:57;;;;;;;1.23;0.73;;;;;;;8.23;99.47;100691.00;5069178;28;20528;-79
2023/10/25 03:18:22;;;;;;;1.45;0.70;;;;;;;8.28;99.48;100691.28;5070200;28;20456;-80
2023/10/25 03:20:48;;;;;;;3.17;0.90;;;;;;;8.12;100.00;100696.84;5069182;28;20021;-79
2023/10/25 03:23:13;;;;;;;1.50;0.77;;;;;;;8.03;100.00;100708.66;5069796;28;20056;-79
2023/10/25 03:25:39;;;;;;;2.00;0.80;;;;;;;8.00;100.00;100712.53;5069539;28;20527;-79
2023/10/25 03:28:04;;;;;;;2.60;1.00;;;;;;;8.25;100.00;100707.75;5070878;28;20033;-79
2023/10/25 03:30:29;;;;;;;3.30;1.15;;;;;;;8.16;100.00;100690.91;5052947;28;20067;-80
2023/10/25 03:32:55;;;;;;;1.77;1.00;;;;;;;8.09;100.00;100690.00;5069650;28;20029;-80
2023/10/25 03:35:20;;;;;;;0.98;0.88;;;;;;;8.26;100.00;100714.75;5052810;28;20052;-80
2023/10/25 03:37:46;;;;;;;1.45;0.80;;;;;;;8.13;100.00;100712.72;5071689;28;20032;-79
2023/10/25 03:40:12;;;;;;;3.72;0.95;;;;;;;8.37;100.00;100711.59;5058685;28;20029;-80
2023/10/25 03:42:37;;;;;;;1.52;0.88;;;;;;;7.73;100.00;100628.28;5074211;28;20044;-80
2023/10/25 03:45:06;;;;;;;1.40;0.85;;;;;;;7.97;100.00;100716.41;5073394;28;20032;-80
2023/10/25 03:47:34;;;;;;;2.40;0.95;;;;;;;7.94;100.00;100708.75;5056855;28;20058;-80
2023/10/25 03:50:01;;;;;;;1.50;0.93;;;;;;;8.03;100.00;100680.03;5090047;28;20032;-80
2023/10/25 03:52:28;;;;;;;2.45;0.77;;;;;;;8.08;100.00;100701.75;5056757;28;20113;-79
2023/10/25 03:54:53;;;;;;;1.90;1.02;;;;;;;8.00;100.00;100701.81;5074208;28;20499;-79
2023/10/25 03:57:19;;;;;;;3.85;1.02;;;;;;;8.03;100.00;100703.31;5056258;28;20116;-79
2023/10/25 03:59:44;;;;;;;2.42;0.82;;;;;;;7.78;100.00;100714.28;5056444;28;20123;-79
2023/10/25 04:02:10;;;;;;;3.08;1.10;;;;;;;7.96;100.00;100705.91;5055924;28;20502;-80
2023/10/25 04:04:35;;;;;;;1.85;1.10;;;;;;;7.88;100.00;100701.47;5039374;28;20024;-79
2023/10/25 04:07:01;;;;;;;1.80;1.00;;;;;;;7.93;100.00;100696.38;5056335;28;20069;-79
2023/10/25 04:09:26;;;;;;;2.28;1.15;;;;;;;7.90;100.00;100667.28;5055918;28;20495;-79
2023/10/25 04:11:52;;;;;;;3.83;1.20;;;;;;;7.84;100.00;100672.53;5071942;28;20032;-78
2023/10/25 04:14:18;;;;;;;1.55;1.08;;;;;;;7.72;100.00;100672.19;5055852;28;20051;-78
2023/10/25 04:16:43;;;;;;;1.38;0.98;;;;;;;8.05;100.00;100695.94;5072264;28;20029;-80
2023/10/25 04:19:08;;;;;;;1.25;0.88;;;;;;;7.97;100.00;100694.16;5073559;28;20035;-79
2023/10/25 04:21:34;;;;;;;1.65;0.98;;;;;;;8.15;100.00;100704.50;5056174;28;20032;-79
2023/10/25 04:24:01;;;;;;;1.67;1.08;;;;;;;7.95;100.00;100682.81;5055427;28;20035;-78
2023/10/25 04:26:28;;;;;;;2.63;0.90;;;;;;;7.91;100.00;100705.59;5055642;28;20411;-79
2023/10/25 04:28:53;;;;;;;3.45;1.10;;;;;;;7.82;100.00;100670.06;5055613;28;20093;-78
2023/10/25 04:31:20;;;;;;;3.35;1.10;;;;;;;8.16;100.00;100695.44;5071862;28;20036;-77
2023/10/25 04:33:47;;;;;;;1.95;1.13;;;;;;;8.05;100.00;100698.59;5060121;28;20044;-80
2023/10/25 04:36:13;;;;;;;1.63;0.93;;;;;;;7.73;100.00;100685.38;5074070;28;20062;-77
2023/10/25 04:38:38;;;;;;;1.83;0.93;;;;;;;7.75;100.00;100685.19;5071548;28;20024;-77
2023/10/25 04:41:04;;;;;;;2.53;0.80;;;;;;;7.78;100.00;100652.66;5088423;28;20029;-78
2023/10/25 04:43:29;;;;;;;1.77;1.10;;;;;;;7.69;100.00;100681.41;5071577;28;20052;-78
2023/10/25 04:45:55;;;;;;;1.60;0.90;;;;;;;7.50;100.00;100663.19;5072417;28;20036;-78
2023/10/25 04:48:20;;;;;;;2.65;1.20;;;;;;;8.01;100.00;100682.03;5054571;28;20475;-78
2023/10/25 04:50:46;;;;;;;2.08;0.98;;;;;;;7.86;100.00;100660.63;5055516;28;20040;-78
2023/10/25 04:53:12;;;;;;;2.38;0.80;;;;;;;7.49;100.00;100682.94;5073233;28;20091;-79
2023/10/25 04:55:37;;;;;;;2.13;0.90;;;;;;;7.55;100.00;100674.19;5071027;28;20028;-79
2023/10/25 04:58:04;;;;;;;2.17;0.98;;;;;;;8.02;100.00;100685.56;5054423;28;20041;-79
2023/10/25 05:00:31;;;;;;;1.38;0.88;;;;;;;7.93;100.00;100674.94;5071537;28;20039;-79
2023/10/25 05:02:58;;;;;;;1.52;0.90;;;;;;;7.92;100.00;100662.56;5070946;28;20248;-79
2023/10/25 05:05:23;;;;;;;1.50;1.00;;;;;;;7.76;100.00;100678.81;5053204;28;20036;-78
2023/10/25 05:07:51;;;;;;;1.80;1.17;;;;;;;7.95;100.00;100686.31;5069035;28;20036;-79
2023/10/25 05:10:17;;;;;;;2.92;1.05;;;;;;;7.75;100.00;100671.81;5070642;28;20103;-79
2023/10/25 05:12:44;;;;;;;3.08;1.30;;;;;;;7.55;100.00;100655.44;5086525;28;20181;-79
2023/10/25 05:15:12;;;;;;;1.95;1.00;;;;;;;7.60;100.00;100679.81;5070676;28;20073;-79
2023/10/25 05:17:38;;;;;;;1.60;1.17;;;;;;;7.84;100.00;100672.53;5052233;28;20137;-78
2023/10/25 05:20:05;;;;;;;2.33;1.40;;;;;;;7.86;100.00;100679.38;5053602;28;20034;-79
2023/10/25 05:22:34;;;;;;;2.05;1.25;;;;;;;7.49;100.00;100651.66;5053355;28;20406;-79
2023/10/25 05:25:00;;;;;;;1.65;1.30;;;;;;;7.50;100.00;100684.59;5053657;28;20048;-79
2023/10/25 05:27:26;;;;;;;2.50;1.45;;;;;;;7.28;100.00;100673.75;5057869;28;20062;-78
2023/10/25 05:29:52;;;;;;;2.10;1.38;;;;;;;6.94;100.00;100620.69;5071599;28;20017;-79
2023/10/25 05:32:21;;;;;;;2.28;1.52;;;;;;;7.19;100.00;100658.78;5054059;28;20089;-77
2023/10/25 05:34:48;;;;;;;4.28;1.70;;;;;;;7.37;100.00;100677.19;5070640;28;20063;-78
2023/10/25 05:37:15;;;;;;;4.53;1.45;;;;;;;7.35;100.00;100657.81;5054168;28;20025;-78
2023/10/25 05:39:41;;;;;;;4.82;1.50;;;;;;;7.39;100.00;100653.75;5070411;28;20028;-77
2023/10/25 05:42:08;;;;;;;2.95;1.50;;;;;;;7.59;100.00;100658.59;5070171;28;20486;-78
2023/10/25 05:44:34;;;;;;;2.45;1.70;;;;;;;7.28;100.00;100664.88;5070371;28;20082;-78
2023/10/25 05:46:59;;;;;;;5.82;2.05;;;;;;;7.48;100.00;100647.31;5070892;28;20039;-78
2023/10/25 05:49:26;;;;;;;2.47;1.60;;;;;;;7.20;100.00;100639.03;5071398;28;20028;-78
2023/10/25 05:51:52;;;;;;;3.05;1.50;;;;;;;7.47;100.00;100648.31;5072081;28;20040;-78
2023/10/25 05:54:18;;;;;;;2.03;1.80;;;;;;;7.52;100.00;100655.81;5040424;28;20089;-78
2023/10/25 05:56:44;;;;;;;2.90;1.92;;;;;;;7.34;100.00;100677.53;5070277;28;20391;-78
2023/10/25 05:59:10;;;;;;;2.38;1.70;;;;;;;7.24;100.00;100642.19;5053563;28;20071;-78
2023/10/25 06:01:49;;;;;;;2.33;1.80;;;;;;;7.17;100.00;100659.97;5053040;28;20024;-78
2023/10/25 06:04:16;;;;;;;2.92;2.00;;;;;;;7.02;100.00;100663.44;5053444;28;20530;-78
2023/10/25 06:06:44;;;;;;;3.08;1.98;;;;;;;7.15;100.00;100670.88;5069625;28;20028;-78
2023/10/25 06:09:11;;;;;;;2.40;1.63;;;;;;;6.81;100.00;100669.44;5070421;28;20127;-78
2023/10/25 06:11:40;;;;;;;2.75;1.80;;;;;;;7.09;100.00;100657.38;5070416;28;20035;-78
2023/10/25 06:14:07;;;;;;;2.65;1.58;;;;;;;7.01;100.00;100645.72;5052996;28;20033;-78
2023/10/25 06:16:32;;;;;;;2.28;1.90;;;;;;;7.02;100.00;100658.09;5069577;28;20029;-77
2023/10/25 06:18:58;;;;;;;3.40;1.80;;;;;;;6.93;100.00;100672.53;5069365;28;20059;-78
2023/10/25 06:21:23;;;;;;;4.93;2.08;;;;;;;6.95;100.00;100673.16;5052519;28;20035;-78
2023/10/25 06:23:51;;;;;;;2.60;2.10;;;;;;;6.92;100.00;100667.34;5068995;28;20044;-78
2023/10/25 06:26:16;;;;;;;3.75;2.17;;;;;;;6.85;100.00;100623.59;5070988;28;20029;-78
2023/10/25 06:28:42;;;;;;;3.63;1.73;;;;;;;7.00;100.00;100676.16;5067776;28;20109;-77
2023/10/25 06:31:15;;;;;;;3.20;2.22;;;;;;;6.73;100.00;100636.59;5067187;28;20483;-78
2023/10/25 06:33:41;;;;;;;3.53;2.03;;;;;;;7.11;100.00;100679.41;5068700;28;20059;-78
2023/10/25 06:36:09;;;;;;;2.83;2.15;;;;;;;7.08;100.00;100675.25;5070119;28;20116;-77
2023/10/25 06:38:35;;;;;;;2.53;2.30;;;;;;;6.55;100.00;100624.31;5070190;28;20044;-78
2023/10/25 06:41:01;;;;;;;4.20;2.45;;;;;;;7.02;100.00;100676.00;5053013;28;20032;-78
2023/10/25 06:43:30;;;;;;;2.83;2.10;;;;;;;6.90;100.00;100680.09;5070026;28;20603;-77
2023/10/25 06:45:58;;;;;;;2.47;2.05;;;;;;;6.86;100.00;100665.41;5069456;28;20120;-77
2023/10/25 06:48:24;;;;;;;3.38;2.22;;;;;;;6.99;100.00;100674.50;5071387;28;20032;-77
2023/10/25 06:50:50;;;;;;;2.45;2.17;;;;;;;6.93;100.00;100680.56;5053916;28;20097;-77
2023/10/25 06:53:16;;;;;;;4.43;2.50;;;;;;;6.66;100.00;100646.34;5071865;28;20157;-77
2023/10/25 06:55:42;;;;;;;3.67;2.30;;;;;;;6.96;100.00;100672.19;5072297;28;20025;-77
2023/10/25 06:58:10;;;;;;;3.05;2.00;;;;;;;7.03;100.00;100662.41;5055304;28;20055;-78
2023/10/25 07:00:37;;;;;;;4.10;2.30;;;;;;;7.20;100.00;100659.63;5036320;28;20029;-77
2023/10/25 07:03:03;;;;;;;3.45;2.05;;;;;;;6.99;100.00;100623.69;5036358;28;20033;-78
2023/10/25 07:05:29;;;;;;;3.40;2.20;;;;;;;7.01;100.00;100651.06;5069352;28;20442;-77
2023/10/25 07:07:56;;;;;;;2.60;2.30;;;;;;;7.00;100.00;100643.22;5069242;28;20075;-77
2023/10/25 07:10:23;;;;;;;3.42;2.20;;;;;;;6.95;100.00;100659.78;5052423;28;20029;-78
2023/10/25 07:12:49;;;;;;;3.40;2.28;;;;;;;6.93;100.00;100651.13;5071600;28;20065;-78
2023/10/25 07:15:15;;;;;;;2.60;2.40;;;;;;;7.19;100.00;100653.44;5073462;28;20429;-78
2023/10/25 07:17:44;;;;;;;2.78;1.90;;;;;;;6.70;100.00;100651.13;5061233;28;20028;-78
2023/10/25 07:20:11;;;;;;;4.22;2.65;;;;;;;7.00;100.00;100660.09;5058685;28;20024;-78
2023/10/25 07:22:38;;;;;;;4.22;2.25;;;;;;;6.87;100.00;100638.47;5073670;28;20475;-78
2023/10/25 07:25:04;;;;;;;4.57;2.30;;;;;;;6.94;100.00;100665.34;5073478;28;20084;-77
2023/10/25 07:27:30;;;;;;;3.30;2.40;;;;;;;7.10;100.00;100656.34;5074550;28;20424;-77
2023/10/25 07:29:55;;;;;;;3.83;2.17;;;;;;;6.89;100.00;100641.81;5040172;28;20035;-78
2023/10/25 07:32:21;;;;;;;4.25;2.20;;;;;;;6.89;100.00;100660.53;5056661;28;20025;-78
2023/10/25 07:34:46;;;;;;;3.85;2.33;;;;;;;7.10;100.00;100656.34;5056298;28;20547;-78
2023/10/25 07:37:11;;;;;;;2.60;2.05;;;;;;;7.03;100.00;100665.09;5039644;28;20024;-77
2023/10/25 07:39:37;;;;;;;2.55;2.35;;;;;;;6.86;100.00;100641.34;5056420;28;20064;-78
2023/10/25 07:42:03;;;;;;;4.68;2.38;;;;;;;6.96;100.00;100653.47;5073332;28;20098;-77
2023/10/25 07:44:28;;;;;;;3.45;2.28;;;;;;;6.81;100.00;100665.94;5072890;28;20066;-77
2023/10/25 07:46:54;;;;;;;3.42;2.40;;;;;;;7.01;100.00;100645.72;5055984;28;20086;-77
2023/10/25 07:49:19;;;;;;;4.10;1.95;;;;;;;6.71;100.00;100617.19;5056271;28;20388;-77
2023/10/25 07:51:45;;;;;;;3.88;2.70;;;;;;;7.17;100.00;100668.00;5056696;28;20104;-76
2023/10/25 07:54:10;;;;;;;5.75;2.85;;;;;;;6.93;100.00;100634.25;5040469;28;20149;-77
2023/10/25 07:56:36;;;;;;;3.38;2.45;;;;;;;7.05;100.00;100679.13;5059197;28;20021;-77
2023/10/25 07:59:01;;;;;;;3.78;2.70;;;;;;;7.17;100.00;100679.53;5073920;28;20143;-77
2023/10/25 08:01:27;;;;;;;3.75;2.50;;;;;;;6.87;100.00;100664.41;5075555;28;20035;-76
2023/10/25 08:03:53;;;;;;;3.13;2.30;;;;;;;7.07;100.00;100677.09;5056843;28;20472;-76
2023/10/25 08:06:18;;;;;;;5.32;2.50;;;;;;;6.99;100.00;100650.44;5073871;28;20103;-76
2023/10/25 08:08:44;;;;;;;3.15;2.30;;;;;;;7.18;100.00;100664.31;5056322;28;20563;-76
2023/10/25 08:11:09;;;;;;;2.97;2.55;;;;;;;7.05;100.00;100665.75;5057597;28;20153;-76
2023/10/25 08:13:38;;;;;;;5.47;3.10;;;;;;;7.03;100.00;100649.03;5074889;28;20025;-76
2023/10/25 08:16:04;;;;;;;3.55;2.30;;;;;;;7.17;100.00;100655.44;5072619;28;20017;-76
2023/10/25 08:18:31;;;;;;;3.30;2.65;;;;;;;7.09;100.00;100654.72;5072797;28;20403;-76
2023/10/25 08:20:57;;;;;;;3.30;2.70;;;;;;;7.16;100.00;100661.81;5072831;28;20500;-76
2023/10/25 08:23:23;;;;;;;3.13;2.60;;;;;;;7.11;100.00;100669.53;5054767;28;20032;-76
2023/10/25 08:25:49;;;;;;;7.13;2.70;;;;;;;7.14;100.00;100663.84;5072103;28;20034;-76
2023/10/25 08:28:14;;;;;;;3.30;2.60;;;;;;;7.12;100.00;100657.84;5072343;28;20117;-76
2023/10/25 08:30:40;;;;;;;3.55;2.50;;;;;;;7.15;100.00;100656.63;5055340;28;20078;-76
2023/10/25 08:33:06;;;;;;;2.95;2.50;;;;;;;7.36;100.00;100658.66;5071914;28;20036;-76
2023/10/25 08:35:33;;;;;;;3.00;2.33;;;;;;;7.20;100.00;100665.78;5054921;28;20024;-77
2023/10/25 08:37:58;;;;;;;3.05;2.03;;;;;;;7.01;100.00;100651.06;5071676;28;20037;-77
2023/10/25 08:40:25;;;;;;;2.60;2.05;;;;;;;7.04;100.00;100640.00;5054875;28;20505;-76
2023/10/25 08:42:50;;;;;;;3.83;2.50;;;;;;;7.07;100.00;100636.97;5073837;28;20032;-76
2023/10/25 08:45:16;;;;;;;26.77;17.13;;;;;;;7.17;100.00;100643.91;5055918;28;20029;-76
2023/10/25 08:47:42;;;;;;;3.95;2.30;;;;;;;7.10;100.00;100635.78;5072771;28;20403;-76
2023/10/25 08:50:08;;;;;;;2.83;2.47;;;;;;;7.40;100.00;100659.94;5071847;28;20046;-76
2023/10/25 08:52:39;;;;;;;3.60;2.45;;;;;;;7.35;100.00;100662.31;5071675;28;20529;-76
2023/10/25 08:55:11;;;;;;;2.70;2.30;;;;;;;7.15;100.00;100646.78;5071664;28;20502;-76
2023/10/25 08:57:40;;;;;;;3.42;2.10;;;;;;;6.99;100.00;100639.72;5071718;28;20052;-76
2023/10/25 09:00:10;;;;;;;3.38;2.30;;;;;;;7.41;100.00;100651.72;5072323;28;20048;-76
2023/10/25 09:02:39;;;;;;;3.15;2.17;;;;;;;7.14;100.00;100633.56;5055407;28;20499;-76
2023/10/25 09:05:09;;;;;;;2.70;2.20;;;;;;;6.86;100.00;100630.66;5057063;28;20047;-76
2023/10/25 09:07:36;;;;;;;2.85;2.22;;;;;;;7.00;100.00;100621.81;5080495;28;20093;-76
2023/10/25 09:10:15;;;;;;;4.65;2.70;;;;;;;7.24;100.00;100666.25;5071970;28;20021;-76
2023/10/25 09:12:41;;;;;;;3.05;2.38;;;;;;;7.22;100.00;100657.59;5055080;28;20119;-76
2023/10/25 09:15:07;;;;;;;3.88;2.47;;;;;;;7.37;100.00;100666.47;5071535;28;20119;-76
2023/10/25 09:17:34;;;;;;;2.95;2.38;;;;;;;7.39;100.00;100658.28;5071260;28;20059;-76
2023/10/25 09:19:59;;;;;;;2.85;2.50;;;;;;;7.33;100.00;100659.81;5071039;28;20024;-76
2023/10/25 09:22:27;;;;;;;4.63;2.90;;;;;;;7.34;100.00;100682.06;5071295;28;20035;-76
2023/10/25 09:24:56;;;;;;;5.28;2.90;;;;;;;7.45;100.00;100673.59;5072002;28;20035;-76
2023/10/25 09:27:23;;;;;;;3.53;2.55;;;;;;;7.50;100.00;100665.84;5070422;28;20501;-76
2023/10/25 09:29:50;;;;;;;5.90;3.15;;;;;;;7.46;100.00;100670.75;5054255;28;20028;-76
2023/10/25 09:32:18;;;;;;;3.85;2.70;;;;;;;7.41;100.00;100673.13;5070927;28;20067;-75
2023/10/25 09:34:45;;;;;;;4.53;2.95;;;;;;;7.07;100.00;100654.88;5070522;28;20024;-75
2023/10/25 09:37:11;;;;;;;5.00;2.95;;;;;;;7.62;100.00;100672.44;5072768;28;20047;-76
2023/10/25 09:39:37;;;;;;;3.60;2.63;;;;;;;7.58;100.00;100662.25;5072900;28;20024;-76
2023/10/25 09:42:15;;;;;;;4.35;2.78;;;;;;;7.29;100.00;100619.22;5070438;28;20145;-75
2023/10/25 09:44:50;;;;;;;3.50;2.63;;;;;;;7.29;100.00;100639.81;5054889;28;20037;-76
2023/10/25 09:47:18;;;;;;;4.55;3.45;;;;;;;7.65;100.00;100641.75;5070512;28;20123;-75
2023/10/25 09:49:58;;;;;;;4.75;2.90;;;;;;;7.46;100.00;100665.41;5070900;28;20036;-76
2023/10/25 09:52:29;;;;;;;3.83;2.88;;;;;;;7.40;100.00;100638.53;5071582;28;20040;-76
2023/10/25 09:55:13;;;;;;;5.80;2.97;;;;;;;7.74;100.00;100654.06;5070579;28;20051;-76
2023/10/25 09:57:40;;;;;;;3.80;2.90;;;;;;;7.76;100.00;100663.56;5070205;28;20048;-75
2023/10/25 10:00:08;;;;;;;7.00;2.60;;;;;;;7.49;100.00;100632.06;5054310;28;20123;-76
2023/10/25 10:02:58;;;;;;;3.50;2.67;;;;;;;7.71;100.00;100657.09;5071916;28;20039;-75
2023/10/25 10:05:31;;;;;;;4.25;2.70;;;;;;;8.01;100.00;100668.66;5071779;28;20069;-75
2023/10/25 10:08:16;;;;;;;4.87;2.73;;;;;;;7.93;100.00;100656.19;5072858;28;20031;-76
2023/10/25 10:11:06;;;;;;;3.67;2.60;;;;;;;7.64;100.00;100651.66;5070762;28;20047;-76
2023/10/25 10:13:31;;;;;;;3.78;2.72;;;;;;;7.63;100.00;100662.56;5071126;28;20119;-75
2023/10/25 10:16:09;;;;;;;3.67;2.83;;;;;;;7.86;100.00;100657.13;5074788;28;20088;-75
2023/10/25 10:18:37;;;;;;;4.90;2.80;;;;;;;7.75;100.00;100658.41;5070788;28;20131;-76
2023/10/25 10:21:05;;;;;;;3.65;2.63;;;;;;;7.98;100.00;100645.75;5069538;28;20024;-76
2023/10/25 10:23:34;;;;;;;5.95;3.22;;;;;;;7.91;100.00;100650.19;5069726;28;20056;-76
2023/10/25 10:26:01;;;;;;;4.95;2.85;;;;;;;7.54;100.00;100617.09;5069814;28;20557;-76
2023/10/25 10:28:37;;;;;;;4.20;2.40;;;;;;;8.03;100.00;100660.44;5071118;28;20024;-76
2023/10/25 10:31:03;;;;;;;4.03;2.63;;;;;;;7.85;100.00;100650.09;5071509;28;20029;-75
2023/10/25 10:33:29;;;;;;;5.93;3.03;;;;;;;7.81;100.00;100654.97;5053283;28;20372;-75
2023/10/25 10:36:00;;;;;;;3.85;2.80;;;;;;;7.88;100.00;100650.56;5069875;28;20040;-75
2023/10/25 10:38:26;;;;;;;4.35;2.60;;;;;;;7.70;100.00;100647.41;5069846;28;20028;-76
2023/10/25 10:40:51;;;;;;;3.47;2.78;;;;;;;7.53;100.00;100642.22;5053300;28;20406;-75
2023/10/25 10:43:17;;;;;;;5.78;3.15;;;;;;;7.76;100.00;100641.31;5070857;28;20498;-76
2023/10/25 10:45:44;;;;;;;3.70;2.95;;;;;;;7.83;100.00;100638.72;5069730;28;20506;-76
2023/10/25 10:48:21;;;;;;;4.32;2.80;;;;;;;7.64;100.00;100648.97;5073712;28;20074;-76
2023/10/25 10:50:49;;;;;;;4.15;2.70;;;;;;;7.88;100.00;100644.34;5074182;28;20489;-76
2023/10/25 10:53:15;;;;;;;3.58;2.70;;;;;;;7.92;100.00;100646.50;5074042;28;20028;-76
2023/10/25 10:55:41;;;;;;;4.55;2.80;;;;;;;7.81;100.00;100638.06;5075714;28;20035;-75
2023/10/25 10:58:07;;;;;;;5.90;2.85;;;;;;;7.95;100.00;100637.25;5073481;28;20052;-75
2023/10/25 11:00:33;;;;;;;5.32;2.95;;;;;;;8.23;100.00;100638.22;5075312;28;20376;-75
2023/10/25 11:03:02;;;;;;;4.55;3.22;;;;;;;7.90;100.00;100621.72;5073962;28;20031;-76
2023/10/25 11:05:29;;;;;;;3.83;2.50;;;;;;;7.89;100.00;100622.75;5073379;28;20158;-76
2023/10/25 11:07:55;;;;;;;3.55;2.70;;;;;;;8.08;100.00;100633.88;5073220;28;20021;-75
2023/10/25 11:10:21;;;;;;;4.03;2.97;;;;;;;8.16;100.00;100629.28;5073818;28;20081;-76
2023/10/25 11:12:46;;;;;;;4.13;3.10;;;;;;;8.20;100.00;100627.03;5075314;28;20105;-75
2023/10/25 11:15:12;;;;;;;3.90;2.95;;;;;;;8.17;100.00;100624.72;5073757;28;20475;-75
2023/10/25 11:17:39;;;;;;;6.68;3.55;;;;;;;8.35;100.00;100618.97;5073914;28;20132;-75
2023/10/25 11:20:05;;;;;;;3.30;2.75;;;;;;;8.41;100.00;100620.91;5073181;28;20588;-75
2023/10/25 11:22:31;;;;;;;5.05;2.90;;;;;;;8.19;100.00;100590.53;5073042;28;20024;-75
2023/10/25 11:24:58;;;;;;;4.60;3.47;;;;;;;8.09;100.00;100611.47;5074686;28;20489;-75